createdAt,value
2023-03-13T00:02:56.219Z,8.55
2023-03-13T00:07:54.409Z,8.43
2023-03-13T00:12:52.644Z,8.63
2023-03-13T00:17:52.211Z,7.82
2023-03-13T00:22:50.429Z,9.68
2023-03-13T00:27:49.427Z,7.82
2023-03-13T00:32:48.668Z,8.40
2023-03-13T00:37:48.477Z,8.02
2023-03-13T00:42:46.706Z,7.38
2023-03-13T00:47:44.938Z,7.20
2023-03-13T00:52:43.146Z,7.95
2023-03-13T00:57:42.736Z,7.95
2023-03-13T01:02:43.031Z,8.57
2023-03-13T01:07:41.552Z,9.07
2023-03-13T01:12:39.845Z,8.73
2023-03-13T01:17:39.437Z,8.63
2023-03-13T01:22:37.647Z,7.95
2023-03-13T01:27:35.974Z,8.40
2023-03-13T01:32:34.391Z,9.25
2023-03-13T01:37:35.805Z,9.55
2023-03-13T01:42:49.405Z,9.10
2023-03-13T01:47:48.226Z,10.40
2023-03-13T01:52:54.297Z,9.13
2023-03-13T01:57:57.697Z,10.60
2023-03-13T02:02:58.124Z,9.52
2023-03-13T02:07:59.785Z,8.70
2023-03-13T02:12:58.806Z,8.93
2023-03-13T02:17:57.380Z,8.48
2023-03-13T02:22:59.142Z,11.63
2023-03-13T02:27:59.913Z,10.07
2023-03-13T02:33:00.992Z,10.88
2023-03-13T02:38:01.946Z,9.82
2023-03-13T02:43:02.721Z,11.68
2023-03-13T02:48:01.455Z,10.50
2023-03-13T02:53:01.952Z,9.60
2023-03-13T02:58:02.627Z,9.10
2023-03-13T03:03:05.502Z,10.63
2023-03-13T03:08:03.716Z,11.00
2023-03-13T03:13:04.555Z,9.77
2023-03-13T03:18:02.816Z,9.68
2023-03-13T03:23:01.368Z,8.45
2023-03-13T03:27:59.572Z,9.00
2023-03-13T03:32:59.963Z,8.52
2023-03-13T03:37:58.522Z,8.80
2023-03-13T03:42:56.706Z,8.65
2023-03-13T03:47:55.098Z,8.30
2023-03-13T03:52:54.922Z,12.30
2023-03-13T03:57:54.535Z,13.55
2023-03-13T04:03:12.390Z,12.68
2023-03-13T04:08:12.057Z,16.20
2023-03-13T04:13:10.274Z,9.85
2023-03-13T04:18:09.266Z,7.43
2023-03-13T04:23:07.668Z,9.95
2023-03-13T04:28:07.450Z,8.00
2023-03-13T04:33:11.553Z,8.38
2023-03-13T04:38:12.407Z,8.20
2023-03-13T04:43:23.683Z,9.63
2023-03-13T04:48:28.685Z,7.72
2023-03-13T04:53:34.346Z,7.25
2023-03-13T04:59:03.315Z,8.10
2023-03-13T05:04:19.935Z,8.48
2023-03-13T05:09:42.236Z,11.52
2023-03-13T05:15:01.938Z,9.07
2023-03-13T05:20:15.098Z,9.45
2023-03-13T05:25:30.951Z,12.85
2023-03-13T05:30:57.202Z,11.63
2023-03-13T05:36:27.852Z,10.18
2023-03-13T05:41:44.898Z,8.88
2023-03-13T05:46:53.457Z,7.70
2023-03-13T05:52:17.702Z,8.77
2023-03-13T05:57:15.805Z,9.00
2023-03-13T06:02:27.277Z,15.80
2023-03-13T06:07:27.008Z,16.85
2023-03-13T06:12:25.356Z,11.27
2023-03-13T06:17:25.568Z,9.35
2023-03-13T06:22:25.098Z,9.25
2023-03-13T06:27:23.217Z,9.40
2023-03-13T06:32:21.452Z,10.55
2023-03-13T06:37:19.693Z,13.82
2023-03-13T06:42:19.184Z,12.35
2023-03-13T06:47:17.372Z,14.00
2023-03-13T06:52:15.562Z,11.73
2023-03-13T06:57:13.751Z,12.90
2023-03-13T07:02:13.752Z,11.23
2023-03-13T07:07:25.594Z,10.02
2023-03-13T07:12:29.269Z,10.05
2023-03-13T07:17:28.832Z,11.20
2023-03-13T07:22:26.989Z,10.82
2023-03-13T07:27:25.202Z,10.68
2023-03-13T07:32:23.749Z,13.30
2023-03-13T07:37:23.291Z,10.90
2023-03-13T07:42:21.386Z,11.10
2023-03-13T07:47:19.547Z,12.98
2023-03-13T07:52:18.093Z,20.52
2023-03-13T07:57:17.753Z,17.83
2023-03-13T08:02:17.010Z,12.55
2023-03-13T08:07:15.209Z,9.95
2023-03-13T08:12:13.326Z,11.88
2023-03-13T08:17:12.823Z,10.15
2023-03-13T08:22:11.064Z,43.67
2023-03-13T08:27:09.205Z,18.05
2023-03-13T08:32:07.415Z,9.35
2023-03-13T08:37:06.963Z,9.05
2023-03-13T08:42:05.282Z,10.63
2023-03-13T08:47:03.419Z,9.43
2023-03-13T08:52:01.726Z,9.90
2023-03-13T08:57:01.230Z,10.68
2023-03-13T09:01:59.375Z,9.55
2023-03-13T09:06:57.502Z,11.32
2023-03-13T09:11:55.809Z,8.27
2023-03-13T09:16:56.432Z,9.73
2023-03-13T09:21:54.550Z,13.55
2023-03-13T09:27:00.999Z,8.18
2023-03-13T09:32:01.353Z,7.35
2023-03-13T09:36:59.451Z,8.68
2023-03-13T09:42:05.252Z,17.23
2023-03-13T09:47:08.023Z,19.35
2023-03-13T09:52:11.660Z,18.25
2023-03-13T09:57:15.085Z,7.68
2023-03-13T10:02:19.435Z,6.90
2023-03-13T10:07:17.620Z,6.57
2023-03-13T10:12:17.638Z,8.02
2023-03-13T10:17:21.350Z,6.13
2023-03-13T10:22:20.839Z,13.77
2023-03-13T10:27:18.981Z,19.65
2023-03-13T10:32:19.004Z,6.75
2023-03-13T10:37:17.814Z,6.25
2023-03-13T10:42:21.844Z,7.13
2023-03-13T10:47:21.325Z,5.32
2023-03-13T10:52:30.405Z,4.90
2023-03-13T10:57:32.951Z,7.85
2023-03-13T11:02:37.365Z,6.32
2023-03-13T11:07:38.041Z,6.18
2023-03-13T11:12:36.712Z,4.68
2023-03-13T11:17:38.804Z,5.10
2023-03-13T11:22:43.561Z,4.38
2023-03-13T11:27:45.589Z,4.32
2023-03-13T11:32:49.234Z,6.28
2023-03-13T11:37:47.452Z,4.25
2023-03-13T11:43:04.797Z,3.83
2023-03-13T11:48:11.094Z,3.60
2023-03-13T11:53:17.338Z,4.65
2023-03-13T11:58:30.631Z,5.40
2023-03-13T12:03:34.410Z,8.13
2023-03-13T12:08:35.417Z,4.72
2023-03-13T12:13:35.981Z,4.20
2023-03-13T12:18:36.991Z,3.80
2023-03-13T12:23:41.960Z,4.38
2023-03-13T12:28:43.164Z,4.13
2023-03-13T12:33:44.168Z,4.22
2023-03-13T12:38:45.124Z,4.03
2023-03-13T12:43:47.922Z,3.45
2023-03-13T12:49:01.378Z,4.90
2023-03-13T12:54:14.221Z,5.22
2023-03-13T12:59:16.514Z,5.97
2023-03-13T13:04:17.646Z,7.63
2023-03-13T13:09:18.088Z,4.57
2023-03-13T13:14:34.552Z,4.85
2023-03-13T13:19:46.430Z,5.32
2023-03-13T13:24:50.503Z,3.80
2023-03-13T13:29:54.723Z,3.80
2023-03-13T13:35:01.858Z,5.37
2023-03-13T13:40:14.864Z,5.55
2023-03-13T13:45:25.612Z,4.57
2023-03-13T13:50:26.036Z,3.80
2023-03-13T13:55:32.266Z,5.07
2023-03-13T14:00:35.847Z,5.72
2023-03-13T14:05:40.257Z,4.68
2023-03-13T14:10:40.000Z,4.60
2023-03-13T14:15:38.150Z,4.53
2023-03-13T14:20:38.351Z,3.78
2023-03-13T14:25:43.763Z,6.72
2023-03-13T14:30:44.292Z,4.45
2023-03-13T14:35:44.327Z,3.90
2023-03-13T14:40:42.471Z,5.68
2023-03-13T14:45:40.583Z,4.10
2023-03-13T14:50:38.857Z,3.65
2023-03-13T14:55:41.117Z,4.82
2023-03-13T15:00:39.978Z,9.07
2023-03-13T15:05:38.100Z,5.93
2023-03-13T15:10:37.625Z,4.25
2023-03-13T15:15:37.137Z,5.55
2023-03-13T15:20:35.273Z,4.50
2023-03-13T15:25:33.517Z,5.10
2023-03-13T15:30:31.817Z,7.18
2023-03-13T15:35:32.027Z,7.05
2023-03-13T15:40:31.041Z,5.15
2023-03-13T15:45:29.514Z,5.03
2023-03-13T15:50:31.049Z,5.60
2023-03-13T15:55:31.133Z,9.80
2023-03-13T16:00:29.376Z,9.13
2023-03-13T16:05:27.574Z,7.72
2023-03-13T16:10:27.134Z,25.45
2023-03-13T16:15:26.655Z,33.50
2023-03-13T16:20:26.502Z,72.28
2023-03-13T16:25:25.224Z,33.35
2023-03-13T16:30:24.629Z,16.15
2023-03-13T16:35:26.686Z,26.98
2023-03-13T16:40:26.401Z,17.55
2023-03-13T16:45:25.062Z,22.98
2023-03-13T16:50:26.530Z,29.67
2023-03-13T16:55:28.444Z,33.17
2023-03-13T17:00:28.606Z,29.95
2023-03-13T17:05:28.312Z,28.40
2023-03-13T17:10:27.268Z,30.65
2023-03-13T17:15:26.088Z,32.70
2023-03-13T17:20:24.967Z,40.88
2023-03-13T17:25:24.751Z,32.40
2023-03-13T17:30:24.563Z,30.92
2023-03-13T17:35:23.541Z,26.00
2023-03-13T17:40:22.461Z,34.25
2023-03-13T17:45:22.180Z,34.03
2023-03-13T17:50:21.306Z,32.80
2023-03-13T17:55:19.545Z,29.08
2023-03-13T18:00:23.947Z,23.58
2023-03-13T18:05:22.124Z,26.55
2023-03-13T18:10:22.022Z,20.73
2023-03-13T18:15:20.245Z,16.83
2023-03-13T18:20:20.613Z,16.30
2023-03-13T18:25:19.535Z,22.58
2023-03-13T18:30:19.149Z,16.80
2023-03-13T18:35:18.118Z,11.73
2023-03-13T18:40:21.623Z,11.40
2023-03-13T18:45:21.296Z,14.77
2023-03-13T18:50:23.694Z,12.90
2023-03-13T18:55:23.307Z,17.45
2023-03-13T19:00:23.237Z,18.02
2023-03-13T19:05:21.644Z,18.27
2023-03-13T19:10:21.037Z,16.23
2023-03-13T19:15:21.834Z,16.25
2023-03-13T19:20:20.855Z,14.30
2023-03-13T19:25:20.985Z,8.13
2023-03-13T19:30:21.338Z,8.05
2023-03-13T19:35:21.964Z,7.95
2023-03-13T19:40:22.163Z,7.10
2023-03-13T19:45:22.198Z,9.05
2023-03-13T19:50:21.424Z,12.65
2023-03-13T19:55:19.766Z,6.45
2023-03-13T20:00:20.942Z,6.85
2023-03-13T20:05:20.393Z,5.97
2023-03-13T20:10:18.529Z,7.57
2023-03-13T20:15:16.805Z,6.20
2023-03-13T20:20:16.086Z,5.45
2023-03-13T20:25:16.172Z,6.75
2023-03-13T20:30:14.391Z,5.53
2023-03-13T20:35:14.138Z,5.50
2023-03-13T20:40:13.309Z,8.70
2023-03-13T20:45:12.919Z,6.35
2023-03-13T20:50:11.592Z,5.30
2023-03-13T20:55:10.157Z,4.63
2023-03-13T21:00:09.636Z,3.60
2023-03-13T21:05:09.700Z,4.35
2023-03-13T21:10:08.329Z,3.35
2023-03-13T21:15:07.305Z,3.72
2023-03-13T21:20:08.861Z,3.30
2023-03-13T21:25:09.615Z,3.40
2023-03-13T21:30:09.352Z,2.78
2023-03-13T21:35:08.074Z,3.17
2023-03-13T21:40:06.867Z,5.18
2023-03-13T21:45:07.214Z,3.22
2023-03-13T21:50:07.049Z,2.95
2023-03-13T21:55:05.630Z,3.50
2023-03-13T22:00:06.458Z,3.20
2023-03-13T22:05:07.747Z,3.45
2023-03-13T22:10:06.326Z,3.05
2023-03-13T22:15:04.669Z,3.05
2023-03-13T22:20:04.181Z,2.67
2023-03-13T22:25:03.691Z,3.83
2023-03-13T22:30:01.830Z,2.95
2023-03-13T22:34:59.967Z,2.90
2023-03-13T22:39:58.106Z,3.20
2023-03-13T22:44:57.616Z,3.28
2023-03-13T22:49:55.783Z,3.47
2023-03-13T22:54:53.900Z,3.67
2023-03-13T22:59:53.907Z,3.50
2023-03-13T23:04:57.696Z,3.35
2023-03-13T23:09:55.933Z,3.05
2023-03-13T23:14:54.609Z,3.55
2023-03-13T23:19:54.090Z,3.35
2023-03-13T23:24:54.091Z,3.50
2023-03-13T23:29:53.125Z,3.08
2023-03-13T23:34:51.236Z,2.80
2023-03-13T23:39:50.804Z,4.47
2023-03-13T23:44:48.932Z,2.90
2023-03-13T23:49:47.394Z,4.45
2023-03-13T23:54:45.520Z,3.25
2023-03-13T23:59:45.189Z,3.47
